sensor_id;sensor_type;location;lat;lon;timestamp;pressure;altitude;pressure_sealevel;temperature;humidity
77739;BME280;66904;59.926;30.404;2023-02-28T00:01:41;101186.28;;;27.50;22.28
77739;BME280;66904;59.926;30.404;2023-02-28T00:06:42;101174.34;;;27.51;22.12
77739;BME280;66904;59.926;30.404;2023-02-28T00:11:42;101162.69;;;27.51;21.81
77739;BME280;66904;59.926;30.404;2023-02-28T00:16:43;101162.69;;;27.51;22.66
77739;BME280;66904;59.926;30.404;2023-02-28T00:21:43;101141.31;;;27.48;22.21
77739;BME280;66904;59.926;30.404;2023-02-28T00:26:44;101145.94;;;27.54;22.21
77739;BME280;66904;59.926;30.404;2023-02-28T00:31:44;101140.25;;;27.55;22.58
77739;BME280;66904;59.926;30.404;2023-02-28T00:37:19;101135.84;;;27.67;22.32
77739;BME280;66904;59.926;30.404;2023-02-28T00:42:39;101123.53;;;27.52;22.49
77739;BME280;66904;59.926;30.404;2023-02-28T00:47:39;101125.59;;;27.63;22.56
77739;BME280;66904;59.926;30.404;2023-02-28T00:58:36;101110.97;;;27.64;22.23
77739;BME280;66904;59.926;30.404;2023-02-28T01:03:37;101099.25;;;27.63;22.05
77739;BME280;66904;59.926;30.404;2023-02-28T01:08:38;101083.78;;;27.64;22.01
77739;BME280;66904;59.926;30.404;2023-02-28T01:13:39;101096.94;;;27.67;22.41
77739;BME280;66904;59.926;30.404;2023-02-28T01:18:39;101082.50;;;27.66;21.84
77739;BME280;66904;59.926;30.404;2023-02-28T01:23:43;101078.75;;;27.67;22.06
77739;BME280;66904;59.926;30.404;2023-02-28T01:28:51;101056.59;;;27.64;21.99
77739;BME280;66904;59.926;30.404;2023-02-28T01:34:10;101078.72;;;27.74;22.57
77739;BME280;66904;59.926;30.404;2023-02-28T01:39:10;101059.78;;;27.92;21.74
77739;BME280;66904;59.926;30.404;2023-02-28T01:56:07;101034.41;;;27.67;21.88
77739;BME280;66904;59.926;30.404;2023-02-28T02:01:10;101044.44;;;27.66;21.99
77739;BME280;66904;59.926;30.404;2023-02-28T02:06:40;101038.34;;;27.71;21.79
77739;BME280;66904;59.926;30.404;2023-02-28T02:17:28;101032.53;;;27.61;22.15
77739;BME280;66904;59.926;30.404;2023-02-28T02:51:18;101018.53;;;27.64;22.10
77739;BME280;66904;59.926;30.404;2023-02-28T02:56:24;101012.03;;;27.65;22.25
77739;BME280;66904;59.926;30.404;2023-02-28T03:01:27;101014.75;;;27.65;21.99
77739;BME280;66904;59.926;30.404;2023-02-28T03:06:29;100982.81;;;27.60;21.86
77739;BME280;66904;59.926;30.404;2023-02-28T03:11:40;100973.72;;;27.73;21.88
77739;BME280;66904;59.926;30.404;2023-02-28T03:22:14;100969.50;;;27.77;22.18
77739;BME280;66904;59.926;30.404;2023-02-28T03:33:35;100969.28;;;27.79;22.01
77739;BME280;66904;59.926;30.404;2023-02-28T03:39:14;100968.03;;;27.74;21.89
77739;BME280;66904;59.926;30.404;2023-02-28T03:50:18;100961.22;;;27.65;21.64
77739;BME280;66904;59.926;30.404;2023-02-28T03:55:43;100943.63;;;27.68;21.67
77739;BME280;66904;59.926;30.404;2023-02-28T04:01:28;100951.69;;;27.81;21.39
77739;BME280;66904;59.926;30.404;2023-02-28T04:06:32;100965.31;;;27.74;21.79
77739;BME280;66904;59.926;30.404;2023-02-28T04:16:45;100971.00;;;27.73;22.11
77739;BME280;66904;59.926;30.404;2023-02-28T04:21:51;100987.53;;;27.71;21.63
77739;BME280;66904;59.926;30.404;2023-02-28T04:26:54;100968.72;;;27.70;21.74
77739;BME280;66904;59.926;30.404;2023-02-28T04:31:56;100963.28;;;27.70;21.65
77739;BME280;66904;59.926;30.404;2023-02-28T04:36:58;100958.94;;;27.62;22.28
77739;BME280;66904;59.926;30.404;2023-02-28T04:42:00;100959.09;;;27.74;22.25
77739;BME280;66904;59.926;30.404;2023-02-28T04:47:00;100939.16;;;27.80;22.37
77739;BME280;66904;59.926;30.404;2023-02-28T04:52:01;100941.19;;;27.85;22.76
77739;BME280;66904;59.926;30.404;2023-02-28T04:57:02;100950.53;;;27.95;22.31
77739;BME280;66904;59.926;30.404;2023-02-28T05:02:02;100938.75;;;28.01;22.38
77739;BME280;66904;59.926;30.404;2023-02-28T05:07:12;100933.13;;;28.03;22.85
77739;BME280;66904;59.926;30.404;2023-02-28T05:12:19;100950.91;;;28.30;22.24
77739;BME280;66904;59.926;30.404;2023-02-28T05:17:19;100945.44;;;28.05;22.87
77739;BME280;66904;59.926;30.404;2023-02-28T05:22:20;100960.28;;;28.09;22.40
77739;BME280;66904;59.926;30.404;2023-02-28T05:27:20;100955.69;;;28.10;22.57
77739;BME280;66904;59.926;30.404;2023-02-28T05:32:21;100948.56;;;28.09;22.31
77739;BME280;66904;59.926;30.404;2023-02-28T05:37:21;100950.69;;;28.07;22.50
77739;BME280;66904;59.926;30.404;2023-02-28T05:42:34;100959.00;;;28.12;22.70
77739;BME280;66904;59.926;30.404;2023-02-28T05:47:44;100968.25;;;28.04;22.80
77739;BME280;66904;59.926;30.404;2023-02-28T05:52:49;100978.06;;;28.05;22.69
77739;BME280;66904;59.926;30.404;2023-02-28T05:58:07;100976.28;;;27.93;22.47
77739;BME280;66904;59.926;30.404;2023-02-28T06:03:08;101001.97;;;28.03;22.43
77739;BME280;66904;59.926;30.404;2023-02-28T06:08:09;101021.00;;;28.03;22.24
77739;BME280;66904;59.926;30.404;2023-02-28T06:13:09;101023.47;;;28.05;22.38
77739;BME280;66904;59.926;30.404;2023-02-28T06:18:10;101035.66;;;28.02;22.28
77739;BME280;66904;59.926;30.404;2023-02-28T06:23:28;101029.38;;;28.02;22.56
77739;BME280;66904;59.926;30.404;2023-02-28T06:28:29;101038.84;;;27.93;22.15
77739;BME280;66904;59.926;30.404;2023-02-28T06:33:29;101037.00;;;27.87;22.36
77739;BME280;66904;59.926;30.404;2023-02-28T06:38:30;101032.25;;;27.76;22.40
77739;BME280;66904;59.926;30.404;2023-02-28T06:43:34;101069.44;;;27.82;22.27
77739;BME280;66904;59.926;30.404;2023-02-28T06:48:35;101072.84;;;27.77;21.91
77739;BME280;66904;59.926;30.404;2023-02-28T06:53:36;101101.91;;;27.77;22.88
77739;BME280;66904;59.926;30.404;2023-02-28T06:58:37;101108.22;;;27.70;22.91
77739;BME280;66904;59.926;30.404;2023-02-28T07:03:51;101112.81;;;27.70;23.70
77739;BME280;66904;59.926;30.404;2023-02-28T07:08:55;101134.56;;;27.70;23.28
77739;BME280;66904;59.926;30.404;2023-02-28T07:13:56;101135.84;;;27.61;23.38
77739;BME280;66904;59.926;30.404;2023-02-28T07:18:56;101125.78;;;27.68;23.38
77739;BME280;66904;59.926;30.404;2023-02-28T07:23:57;101128.91;;;27.71;23.16
77739;BME280;66904;59.926;30.404;2023-02-28T07:28:58;101110.56;;;27.60;23.98
77739;BME280;66904;59.926;30.404;2023-02-28T07:33:58;101134.97;;;27.73;24.07
77739;BME280;66904;59.926;30.404;2023-02-28T07:38:59;101139.59;;;27.73;23.97
77739;BME280;66904;59.926;30.404;2023-02-28T07:44:00;101127.66;;;27.74;24.29
77739;BME280;66904;59.926;30.404;2023-02-28T07:49:00;101130.78;;;27.71;23.73
77739;BME280;66904;59.926;30.404;2023-02-28T07:54:03;101126.59;;;27.75;24.15
77739;BME280;66904;59.926;30.404;2023-02-28T07:59:05;101132.47;;;27.72;23.91
77739;BME280;66904;59.926;30.404;2023-02-28T08:04:06;101136.63;;;27.74;24.29
77739;BME280;66904;59.926;30.404;2023-02-28T08:09:08;101144.59;;;27.76;23.94
77739;BME280;66904;59.926;30.404;2023-02-28T08:14:14;101134.53;;;27.77;24.28
77739;BME280;66904;59.926;30.404;2023-02-28T08:19:15;101140.38;;;27.80;24.39
77739;BME280;66904;59.926;30.404;2023-02-28T08:24:16;101152.72;;;27.83;24.38
77739;BME280;66904;59.926;30.404;2023-02-28T08:29:16;101168.78;;;27.84;24.14
77739;BME280;66904;59.926;30.404;2023-02-28T08:34:17;101160.47;;;27.79;23.71
77739;BME280;66904;59.926;30.404;2023-02-28T08:39:18;101172.22;;;27.73;24.28
77739;BME280;66904;59.926;30.404;2023-02-28T08:44:20;101179.31;;;27.74;23.72
77739;BME280;66904;59.926;30.404;2023-02-28T08:49:20;101169.69;;;27.71;23.82
77739;BME280;66904;59.926;30.404;2023-02-28T08:54:21;101178.91;;;27.70;23.69
77739;BME280;66904;59.926;30.404;2023-02-28T08:59:23;101182.88;;;27.68;23.62
77739;BME280;66904;59.926;30.404;2023-02-28T09:04:23;101194.41;;;27.63;23.52
77739;BME280;66904;59.926;30.404;2023-02-28T09:09:24;101213.22;;;27.58;23.65
77739;BME280;66904;59.926;30.404;2023-02-28T09:14:24;101202.19;;;27.53;22.90
77739;BME280;66904;59.926;30.404;2023-02-28T09:19:37;101156.41;;;27.31;23.06
77739;BME280;66904;59.926;30.404;2023-02-28T09:24:40;101211.97;;;27.54;22.97
77739;BME280;66904;59.926;30.404;2023-02-28T09:29:41;101214.50;;;27.56;22.74
77739;BME280;66904;59.926;30.404;2023-02-28T09:34:41;101210.09;;;27.61;23.02
77739;BME280;66904;59.926;30.404;2023-02-28T09:39:42;101204.63;;;27.68;22.60
77739;BME280;66904;59.926;30.404;2023-02-28T09:44:45;101210.28;;;27.73;22.53
77739;BME280;66904;59.926;30.404;2023-02-28T09:49:48;101205.03;;;27.71;22.54
77739;BME280;66904;59.926;30.404;2023-02-28T09:54:49;101183.31;;;27.58;22.42
77739;BME280;66904;59.926;30.404;2023-02-28T10:05:17;101220.13;;;27.67;22.30
77739;BME280;66904;59.926;30.404;2023-02-28T10:10:35;101228.50;;;27.66;21.91
77739;BME280;66904;59.926;30.404;2023-02-28T10:15:38;101234.78;;;27.60;22.48
77739;BME280;66904;59.926;30.404;2023-02-28T10:20:41;101233.34;;;27.57;22.42
77739;BME280;66904;59.926;30.404;2023-02-28T10:26:08;101223.91;;;27.60;21.86
77739;BME280;66904;59.926;30.404;2023-02-28T10:31:15;101224.72;;;27.67;22.20
77739;BME280;66904;59.926;30.404;2023-02-28T10:36:20;101233.72;;;27.74;21.61
77739;BME280;66904;59.926;30.404;2023-02-28T10:41:30;101230.75;;;27.76;21.37
77739;BME280;66904;59.926;30.404;2023-02-28T10:46:35;101232.47;;;27.70;22.00
77739;BME280;66904;59.926;30.404;2023-02-28T10:51:40;101235.81;;;27.65;21.20
77739;BME280;66904;59.926;30.404;2023-02-28T10:56:41;101248.16;;;27.61;21.79
77739;BME280;66904;59.926;30.404;2023-02-28T11:01:46;101251.09;;;27.60;21.72
77739;BME280;66904;59.926;30.404;2023-02-28T11:12:03;101235.63;;;27.54;21.14
77739;BME280;66904;59.926;30.404;2023-02-28T11:17:26;101250.88;;;27.61;21.48
77739;BME280;66904;59.926;30.404;2023-02-28T11:22:29;101251.31;;;27.52;20.95
77739;BME280;66904;59.926;30.404;2023-02-28T11:32:31;101239.41;;;27.53;21.05
77739;BME280;66904;59.926;30.404;2023-02-28T11:37:32;101241.06;;;27.54;21.07
77739;BME280;66904;59.926;30.404;2023-02-28T11:42:43;101252.56;;;27.56;20.47
77739;BME280;66904;59.926;30.404;2023-02-28T11:48:01;101254.44;;;27.55;20.30
77739;BME280;66904;59.926;30.404;2023-02-28T11:58:37;101240.00;;;27.55;20.48
77739;BME280;66904;59.926;30.404;2023-02-28T12:03:55;101248.38;;;27.60;20.09
77739;BME280;66904;59.926;30.404;2023-02-28T12:09:04;101244.19;;;27.57;19.97
77739;BME280;66904;59.926;30.404;2023-02-28T12:30:29;101275.34;;;27.61;19.54
77739;BME280;66904;59.926;30.404;2023-02-28T12:45:53;101264.47;;;27.55;20.24
77739;BME280;66904;59.926;30.404;2023-02-28T12:50:56;101270.31;;;27.58;19.86
77739;BME280;66904;59.926;30.404;2023-02-28T13:11:52;101271.50;;;27.95;20.31
77739;BME280;66904;59.926;30.404;2023-02-28T13:17:11;101271.34;;;27.84;19.63
77739;BME280;66904;59.926;30.404;2023-02-28T13:27:40;101282.00;;;27.79;20.10
77739;BME280;66904;59.926;30.404;2023-02-28T13:32:42;101294.97;;;27.77;20.05
77739;BME280;66904;59.926;30.404;2023-02-28T13:37:44;101293.72;;;27.79;19.58
77739;BME280;66904;59.926;30.404;2023-02-28T13:42:47;101299.16;;;27.79;20.10
77739;BME280;66904;59.926;30.404;2023-02-28T13:47:58;101307.72;;;27.83;19.40
77739;BME280;66904;59.926;30.404;2023-02-28T13:58:38;101296.41;;;27.86;18.94
77739;BME280;66904;59.926;30.404;2023-02-28T14:19:37;101258.59;;;27.58;18.93
77739;BME280;66904;59.926;30.404;2023-02-28T14:40:22;101266.59;;;27.46;18.73
77739;BME280;66904;59.926;30.404;2023-02-28T14:45:28;101281.19;;;27.52;18.80
77739;BME280;66904;59.926;30.404;2023-02-28T14:50:35;101291.66;;;27.55;18.64
77739;BME280;66904;59.926;30.404;2023-02-28T14:55:36;101303.19;;;27.50;18.88
77739;BME280;66904;59.926;30.404;2023-02-28T15:01:03;101282.88;;;27.40;18.24
77739;BME280;66904;59.926;30.404;2023-02-28T15:06:22;101300.19;;;27.39;19.04
77739;BME280;66904;59.926;30.404;2023-02-28T15:11:32;101305.03;;;27.37;18.65
77739;BME280;66904;59.926;30.404;2023-02-28T15:16:48;101303.56;;;27.34;18.54
77739;BME280;66904;59.926;30.404;2023-02-28T15:22:06;101320.69;;;27.28;18.26
77739;BME280;66904;59.926;30.404;2023-02-28T15:27:20;101330.78;;;27.47;18.60
77739;BME280;66904;59.926;30.404;2023-02-28T15:32:38;101323.41;;;27.28;18.08
77739;BME280;66904;59.926;30.404;2023-02-28T15:37:44;101322.97;;;27.38;18.20
77739;BME280;66904;59.926;30.404;2023-02-28T15:43:18;101317.78;;;27.23;17.73
77739;BME280;66904;59.926;30.404;2023-02-28T15:48:29;101316.72;;;27.11;18.13
77739;BME280;66904;59.926;30.404;2023-02-28T15:54:01;101333.03;;;27.11;17.46
77739;BME280;66904;59.926;30.404;2023-02-28T15:59:06;101334.25;;;27.02;18.03
77739;BME280;66904;59.926;30.404;2023-02-28T16:04:19;101321.50;;;26.96;17.35
77739;BME280;66904;59.926;30.404;2023-02-28T16:09:19;101342.59;;;27.00;18.31
77739;BME280;66904;59.926;30.404;2023-02-28T16:14:25;101328.78;;;26.89;17.58
77739;BME280;66904;59.926;30.404;2023-02-28T16:19:32;101331.50;;;26.95;18.25
77739;BME280;66904;59.926;30.404;2023-02-28T16:24:33;101344.06;;;26.96;18.09
77739;BME280;66904;59.926;30.404;2023-02-28T16:29:35;101345.94;;;26.96;18.17
77739;BME280;66904;59.926;30.404;2023-02-28T16:34:36;101347.81;;;27.02;18.18
77739;BME280;66904;59.926;30.404;2023-02-28T16:39:37;101353.47;;;27.07;18.21
77739;BME280;66904;59.926;30.404;2023-02-28T16:44:38;101347.81;;;27.08;18.15
77739;BME280;66904;59.926;30.404;2023-02-28T16:49:39;101350.97;;;27.12;18.60
77739;BME280;66904;59.926;30.404;2023-02-28T16:54:43;101349.53;;;27.16;19.09
77739;BME280;66904;59.926;30.404;2023-02-28T16:59:44;101344.09;;;27.22;18.51
77739;BME280;66904;59.926;30.404;2023-02-28T17:04:45;101332.38;;;27.29;18.84
77739;BME280;66904;59.926;30.404;2023-02-28T17:09:46;101332.19;;;27.37;19.15
77739;BME280;66904;59.926;30.404;2023-02-28T17:14:47;101326.78;;;27.43;19.96
77739;BME280;66904;59.926;30.404;2023-02-28T17:19:48;101318.00;;;27.61;20.13
77739;BME280;66904;59.926;30.404;2023-02-28T17:24:49;101305.03;;;27.76;20.33
77739;BME280;66904;59.926;30.404;2023-02-28T17:29:50;101307.28;;;27.92;21.47
77739;BME280;66904;59.926;30.404;2023-02-28T17:34:50;101306.84;;;28.08;21.48
77739;BME280;66904;59.926;30.404;2023-02-28T17:39:51;101310.16;;;28.23;21.08
77739;BME280;66904;59.926;30.404;2023-02-28T17:44:52;101310.34;;;28.29;20.81
77739;BME280;66904;59.926;30.404;2023-02-28T17:49:52;101314.94;;;28.28;20.85
77739;BME280;66904;59.926;30.404;2023-02-28T17:54:54;101307.06;;;28.13;21.09
77739;BME280;66904;59.926;30.404;2023-02-28T17:59:54;101305.16;;;28.07;20.94
77739;BME280;66904;59.926;30.404;2023-02-28T18:04:55;101296.59;;;28.04;21.05
77739;BME280;66904;59.926;30.404;2023-02-28T18:09:58;101296.59;;;28.04;20.74
77739;BME280;66904;59.926;30.404;2023-02-28T18:15:00;101279.88;;;28.00;21.22
77739;BME280;66904;59.926;30.404;2023-02-28T18:20:01;101277.34;;;27.99;20.76
77739;BME280;66904;59.926;30.404;2023-02-28T18:25:03;101277.78;;;27.96;21.53
77739;BME280;66904;59.926;30.404;2023-02-28T18:30:04;101280.91;;;27.99;21.33
77739;BME280;66904;59.926;30.404;2023-02-28T18:35:06;101274.63;;;27.99;22.41
77739;BME280;66904;59.926;30.404;2023-02-28T18:40:07;101246.44;;;27.87;22.58
77739;BME280;66904;59.926;30.404;2023-02-28T18:45:08;101266.47;;;27.99;22.29
77739;BME280;66904;59.926;30.404;2023-02-28T18:50:10;101269.59;;;28.02;22.95
77739;BME280;66904;59.926;30.404;2023-02-28T18:55:10;101256.44;;;28.06;22.78
77739;BME280;66904;59.926;30.404;2023-02-28T19:00:15;101265.19;;;28.08;22.63
77739;BME280;66904;59.926;30.404;2023-02-28T19:05:19;101252.00;;;28.05;23.41
77739;BME280;66904;59.926;30.404;2023-02-28T19:10:19;101257.25;;;28.13;24.04
77739;BME280;66904;59.926;30.404;2023-02-28T19:15:20;101254.06;;;28.22;23.74
77739;BME280;66904;59.926;30.404;2023-02-28T19:20:21;101269.75;;;28.27;23.61
77739;BME280;66904;59.926;30.404;2023-02-28T19:25:21;101274.56;;;28.25;23.00
77739;BME280;66904;59.926;30.404;2023-02-28T19:30:23;101266.19;;;28.27;22.79
77739;BME280;66904;59.926;30.404;2023-02-28T19:35:24;101267.44;;;28.24;22.49
77739;BME280;66904;59.926;30.404;2023-02-28T19:40:24;101265.97;;;28.21;22.77
77739;BME280;66904;59.926;30.404;2023-02-28T19:45:25;101270.38;;;28.22;22.28
77739;BME280;66904;59.926;30.404;2023-02-28T19:50:25;101258.66;;;28.22;22.41
77739;BME280;66904;59.926;30.404;2023-02-28T19:55:26;101263.63;;;28.32;22.27
77739;BME280;66904;59.926;30.404;2023-02-28T20:06:10;101269.66;;;28.47;22.28
77739;BME280;66904;59.926;30.404;2023-02-28T20:11:15;101261.66;;;28.52;21.85
77739;BME280;66904;59.926;30.404;2023-02-28T20:16:16;101264.34;;;28.58;22.15
77739;BME280;66904;59.926;30.404;2023-02-28T20:21:17;101238.44;;;28.49;22.16
77739;BME280;66904;59.926;30.404;2023-02-28T20:26:18;101272.69;;;28.63;21.66
77739;BME280;66904;59.926;30.404;2023-02-28T20:31:22;101272.81;;;28.44;20.28
77739;BME280;66904;59.926;30.404;2023-02-28T20:36:23;101269.56;;;28.15;21.12
77739;BME280;66904;59.926;30.404;2023-02-28T20:41:23;101259.31;;;28.04;20.79
77739;BME280;66904;59.926;30.404;2023-02-28T20:46:25;101237.41;;;27.93;21.07
77739;BME280;66904;59.926;30.404;2023-02-28T20:51:25;101248.25;;;28.06;20.53
77739;BME280;66904;59.926;30.404;2023-02-28T20:56:26;101243.00;;;28.11;20.57
77739;BME280;66904;59.926;30.404;2023-02-28T21:01:27;101246.34;;;28.19;20.81
77739;BME280;66904;59.926;30.404;2023-02-28T21:06:31;101250.06;;;28.25;20.69
77739;BME280;66904;59.926;30.404;2023-02-28T21:11:34;101247.56;;;28.23;19.93
77739;BME280;66904;59.926;30.404;2023-02-28T21:16:44;101241.72;;;28.20;20.29
77739;BME280;66904;59.926;30.404;2023-02-28T21:21:48;101254.53;;;28.13;20.40
77739;BME280;66904;59.926;30.404;2023-02-28T21:26:48;101219.69;;;27.77;19.72
77739;BME280;66904;59.926;30.404;2023-02-28T21:31:50;101250.84;;;27.68;19.73
77739;BME280;66904;59.926;30.404;2023-02-28T21:36:51;101247.53;;;27.59;19.58
77739;BME280;66904;59.926;30.404;2023-02-28T21:41:53;101240.22;;;27.53;19.31
77739;BME280;66904;59.926;30.404;2023-02-28T21:46:55;101246.94;;;27.51;19.21
77739;BME280;66904;59.926;30.404;2023-02-28T21:52:00;101242.13;;;27.46;19.02
77739;BME280;66904;59.926;30.404;2023-02-28T21:57:00;101231.22;;;27.40;18.35
77739;BME280;66904;59.926;30.404;2023-02-28T22:02:01;101230.19;;;27.34;18.01
77739;BME280;66904;59.926;30.404;2023-02-28T22:07:02;101237.94;;;27.31;18.39
77739;BME280;66904;59.926;30.404;2023-02-28T22:12:02;101212.00;;;27.08;17.76
77739;BME280;66904;59.926;30.404;2023-02-28T22:17:03;101234.16;;;27.12;17.64
77739;BME280;66904;59.926;30.404;2023-02-28T22:22:03;101244.84;;;27.07;18.08
77739;BME280;66904;59.926;30.404;2023-02-28T22:27:04;101243.75;;;27.01;17.53
77739;BME280;66904;59.926;30.404;2023-02-28T22:32:07;101247.53;;;26.94;16.53
77739;BME280;66904;59.926;30.404;2023-02-28T22:37:09;101236.69;;;26.87;17.11
77739;BME280;66904;59.926;30.404;2023-02-28T22:42:09;101235.59;;;26.82;17.63
77739;BME280;66904;59.926;30.404;2023-02-28T22:47:10;101234.34;;;26.78;16.85
77739;BME280;66904;59.926;30.404;2023-02-28T22:52:10;101240.38;;;26.73;17.09
77739;BME280;66904;59.926;30.404;2023-02-28T22:57:11;101243.91;;;26.67;17.15
77739;BME280;66904;59.926;30.404;2023-02-28T23:02:11;101249.13;;;26.62;17.07
77739;BME280;66904;59.926;30.404;2023-02-28T23:07:12;101264.19;;;26.64;16.68
77739;BME280;66904;59.926;30.404;2023-02-28T23:12:13;101258.94;;;26.63;16.90
77739;BME280;66904;59.926;30.404;2023-02-28T23:17:13;101260.59;;;26.57;16.91
77739;BME280;66904;59.926;30.404;2023-02-28T23:22:14;101264.53;;;26.55;16.99
77739;BME280;66904;59.926;30.404;2023-02-28T23:27:20;101263.50;;;26.49;16.13
77739;BME280;66904;59.926;30.404;2023-02-28T23:32:33;101256.38;;;26.42;17.68
77739;BME280;66904;59.926;30.404;2023-02-28T23:37:35;101263.50;;;26.49;17.77
77739;BME280;66904;59.926;30.404;2023-02-28T23:42:36;101267.66;;;26.52;17.43
77739;BME280;66904;59.926;30.404;2023-02-28T23:47:58;101276.91;;;26.64;17.01
77739;BME280;66904;59.926;30.404;2023-02-28T23:52:59;101275.41;;;26.55;17.26
77739;BME280;66904;59.926;30.404;2023-02-28T23:57:59;101268.31;;;26.54;17.44
